createdAt,value
2019-02-24T00:01:20.273Z,100393.25
2019-02-24T00:03:49.885Z,100390.41
2019-02-24T00:06:19.885Z,100391.72
2019-02-24T00:08:49.500Z,100387.06
2019-02-24T00:11:19.185Z,100388.77
2019-02-24T00:13:48.826Z,100390.13
2019-02-24T00:16:18.441Z,100383.53
2019-02-24T00:18:48.078Z,100386.94
2019-02-24T00:21:17.696Z,100392.87
2019-02-24T00:23:47.336Z,100387.16
2019-02-24T00:26:16.958Z,100382.90
2019-02-24T00:28:46.603Z,100373.66
2019-02-24T00:31:16.219Z,100373.06
2019-02-24T00:33:47.434Z,100368.22
2019-02-24T00:36:17.055Z,100367.51
2019-02-24T00:38:46.768Z,100362.18
2019-02-24T00:41:16.387Z,100360.06
2019-02-24T00:43:47.692Z,100357.23
2019-02-24T00:46:17.303Z,100354.31
2019-02-24T00:48:46.920Z,100352.30
2019-02-24T00:51:16.568Z,100355.03
2019-02-24T00:53:47.829Z,100356.02
2019-02-24T00:56:17.472Z,100355.13
2019-02-24T00:58:47.086Z,100350.11
2019-02-24T01:01:16.871Z,100344.09
2019-02-24T01:03:46.554Z,100335.55
2019-02-24T01:06:16.216Z,100336.03
2019-02-24T01:08:45.835Z,100330.75
2019-02-24T01:11:15.449Z,100330.66
2019-02-24T01:13:45.089Z,100331.41
2019-02-24T01:16:14.703Z,100330.19
2019-02-24T01:18:44.348Z,100328.28
2019-02-24T01:21:14.033Z,100322.25
2019-02-24T01:23:43.672Z,100322.54
2019-02-24T01:26:13.287Z,100311.08
2019-02-24T01:28:42.934Z,100315.42
2019-02-24T01:31:12.549Z,100308.44
2019-02-24T01:33:42.195Z,100308.82
2019-02-24T01:36:11.809Z,100308.14
2019-02-24T01:38:41.465Z,100305.20
2019-02-24T01:41:11.079Z,100302.50
2019-02-24T01:43:40.702Z,100306.42
2019-02-24T01:46:10.339Z,100304.17
2019-02-24T01:48:39.956Z,100306.92
2019-02-24T01:51:09.595Z,100302.22
2019-02-24T01:53:39.211Z,100302.31
2019-02-24T01:56:08.857Z,100299.94
2019-02-24T01:58:38.478Z,100302.38
2019-02-24T02:01:08.114Z,100288.73
2019-02-24T02:03:37.731Z,100290.05
2019-02-24T02:06:07.372Z,100281.30
2019-02-24T02:08:36.988Z,100284.23
2019-02-24T02:11:06.632Z,100281.56
2019-02-24T02:13:36.247Z,100286.34
2019-02-24T02:16:05.917Z,100283.64
2019-02-24T02:18:35.699Z,100283.55
2019-02-24T02:21:05.325Z,100281.91
2019-02-24T02:23:35.137Z,100285.59
2019-02-24T02:26:04.839Z,100278.86
2019-02-24T02:28:34.487Z,100279.11
2019-02-24T02:31:04.181Z,100278.05
2019-02-24T02:33:33.824Z,100279.69
2019-02-24T02:36:03.447Z,100271.63
2019-02-24T02:38:33.090Z,100273.86
2019-02-24T02:41:02.711Z,100275.16
2019-02-24T02:43:32.364Z,100267.82
2019-02-24T02:46:01.999Z,100274.39
2019-02-24T02:48:31.628Z,100281.17
2019-02-24T02:51:01.251Z,100277.96
2019-02-24T02:53:30.906Z,100271.08
2019-02-24T02:56:00.524Z,100272.69
2019-02-24T02:58:30.148Z,100275.16
2019-02-24T03:00:59.927Z,100280.21
2019-02-24T03:03:29.546Z,100274.03
2019-02-24T03:06:00.831Z,100279.57
2019-02-24T03:08:47.435Z,100276.87
2019-02-24T03:11:17.891Z,100275.16
2019-02-24T03:13:47.510Z,100276.00
2019-02-24T03:16:18.798Z,100274.42
2019-02-24T03:18:48.422Z,100272.30
2019-02-24T03:21:18.039Z,100276.00
2019-02-24T03:23:47.684Z,100275.77
2019-02-24T03:26:17.306Z,100271.19
2019-02-24T03:28:46.944Z,100271.06
2019-02-24T03:31:16.658Z,100269.74
2019-02-24T03:33:47.948Z,100267.59
2019-02-24T03:36:17.568Z,100277.11
2019-02-24T03:38:47.213Z,100273.95
2019-02-24T03:41:16.904Z,100276.98
2019-02-24T03:43:46.549Z,100278.88
2019-02-24T03:46:16.167Z,100283.41
2019-02-24T03:48:45.830Z,100279.52
2019-02-24T03:51:15.441Z,100285.09
2019-02-24T03:53:47.608Z,100285.13
2019-02-24T03:56:16.672Z,100288.53
2019-02-24T03:58:46.422Z,100291.23
2019-02-24T04:01:16.065Z,100292.41
2019-02-24T04:03:45.797Z,100298.40
2019-02-24T04:06:15.474Z,100294.01
2019-02-24T04:08:45.094Z,100296.81
2019-02-24T04:11:14.737Z,100300.61
2019-02-24T04:13:44.354Z,100299.17
2019-02-24T04:16:14.002Z,100300.89
2019-02-24T04:18:43.616Z,100299.09
2019-02-24T04:21:13.287Z,100303.41
2019-02-24T04:23:42.906Z,100295.58
2019-02-24T04:26:12.543Z,100290.88
2019-02-24T04:28:42.188Z,100293.30
2019-02-24T04:31:11.815Z,100289.63
2019-02-24T04:33:41.452Z,100285.05
2019-02-24T04:36:11.069Z,100283.88
2019-02-24T04:38:40.710Z,100285.84
2019-02-24T04:41:10.397Z,100285.36
2019-02-24T04:43:40.043Z,100292.98
2019-02-24T04:46:09.663Z,100296.61
2019-02-24T04:48:39.315Z,100297.09
2019-02-24T04:51:08.929Z,100304.31
2019-02-24T04:53:38.581Z,100301.91
2019-02-24T04:56:08.201Z,100302.51
2019-02-24T04:58:37.853Z,100307.30
2019-02-24T05:01:07.468Z,100308.29
2019-02-24T05:03:37.136Z,100316.24
2019-02-24T05:06:06.758Z,100314.56
2019-02-24T05:08:36.483Z,100312.29
2019-02-24T05:11:06.129Z,100318.13
2019-02-24T05:13:35.748Z,100315.97
2019-02-24T05:16:05.396Z,100313.38
2019-02-24T05:18:35.016Z,100309.58
2019-02-24T05:21:04.663Z,100319.15
2019-02-24T05:23:34.286Z,100320.62
2019-02-24T05:26:03.932Z,100315.67
2019-02-24T05:28:33.555Z,100314.79
2019-02-24T05:31:03.196Z,100315.08
2019-02-24T05:33:32.813Z,100314.95
2019-02-24T05:36:02.436Z,100319.23
2019-02-24T05:38:32.078Z,100322.75
2019-02-24T05:41:01.697Z,100317.98
2019-02-24T05:43:31.342Z,100317.29
2019-02-24T05:46:00.963Z,100317.92
2019-02-24T05:48:30.609Z,100319.02
2019-02-24T05:51:00.229Z,100316.81
2019-02-24T05:53:29.876Z,100317.72
2019-02-24T05:55:59.490Z,100319.72
2019-02-24T05:58:29.203Z,100315.85
2019-02-24T06:00:58.823Z,100314.38
2019-02-24T06:03:28.486Z,100321.87
2019-02-24T06:05:58.107Z,100330.73
2019-02-24T06:08:27.737Z,100333.99
2019-02-24T06:10:57.382Z,100330.66
2019-02-24T06:13:27.005Z,100336.34
2019-02-24T06:15:56.655Z,100341.35
2019-02-24T06:18:26.274Z,100341.14
2019-02-24T06:20:55.920Z,100341.96
2019-02-24T06:23:25.541Z,100344.80
2019-02-24T06:25:55.193Z,100354.29
2019-02-24T06:28:24.814Z,100363.03
2019-02-24T06:30:54.457Z,100359.29
2019-02-24T06:33:24.254Z,100360.13
2019-02-24T06:35:53.983Z,100368.83
2019-02-24T06:38:23.667Z,100370.72
2019-02-24T06:40:53.309Z,100366.44
2019-02-24T06:43:22.931Z,100368.85
2019-02-24T06:45:52.579Z,100370.17
2019-02-24T06:48:22.196Z,100382.23
2019-02-24T06:51:02.710Z,100386.55
2019-02-24T06:53:32.330Z,100387.73
2019-02-24T06:56:01.997Z,100400.48
2019-02-24T06:58:31.629Z,100396.23
2019-02-24T07:01:01.247Z,100405.19
2019-02-24T07:03:30.903Z,100400.40
2019-02-24T07:06:00.511Z,100403.39
2019-02-24T07:08:30.154Z,100399.92
2019-02-24T07:10:59.774Z,100411.56
2019-02-24T07:13:29.418Z,100411.14
2019-02-24T07:15:59.045Z,100417.45
2019-02-24T07:18:28.686Z,100420.09
2019-02-24T07:20:58.375Z,100425.91
2019-02-24T07:23:28.034Z,100429.94
2019-02-24T07:25:57.658Z,100435.30
2019-02-24T07:28:27.281Z,100424.76
2019-02-24T07:30:56.923Z,100431.88
2019-02-24T07:33:26.541Z,100427.03
2019-02-24T07:35:56.186Z,100432.92
2019-02-24T07:38:25.880Z,100437.72
2019-02-24T07:40:55.790Z,100439.25
2019-02-24T07:43:25.411Z,100449.79
2019-02-24T07:45:55.053Z,100455.74
2019-02-24T07:48:24.713Z,100455.34
2019-02-24T07:50:54.420Z,100456.38
2019-02-24T07:53:24.042Z,100458.67
2019-02-24T07:55:53.661Z,100463.93
2019-02-24T07:58:23.315Z,100468.72
2019-02-24T08:00:52.933Z,100475.02
2019-02-24T08:03:22.572Z,100463.91
2019-02-24T08:05:52.191Z,100467.52
2019-02-24T08:08:21.836Z,100466.12
2019-02-24T08:10:51.457Z,100458.25
2019-02-24T08:13:21.102Z,100461.70
2019-02-24T08:15:50.729Z,100464.74
2019-02-24T08:18:20.402Z,100468.37
2019-02-24T08:20:50.057Z,100474.60
2019-02-24T08:23:19.719Z,100476.22
2019-02-24T08:25:49.360Z,100480.79
2019-02-24T08:28:18.981Z,100483.30
2019-02-24T08:30:48.648Z,100481.05
2019-02-24T08:33:18.269Z,100485.59
2019-02-24T08:35:47.915Z,100480.79
2019-02-24T08:38:17.529Z,100486.97
2019-02-24T08:40:47.173Z,100491.64
2019-02-24T08:43:16.794Z,100485.97
2019-02-24T08:45:46.462Z,100480.58
2019-02-24T08:48:16.080Z,100475.20
2019-02-24T08:50:45.702Z,100475.83
2019-02-24T08:53:15.345Z,100471.83
2019-02-24T08:55:44.971Z,100474.03
2019-02-24T08:58:14.686Z,100469.64
2019-02-24T09:00:50.769Z,100467.02
2019-02-24T09:03:15.670Z,100461.61
2019-02-24T09:05:45.291Z,100466.41
2019-02-24T09:08:14.945Z,100461.20
2019-02-24T09:10:44.562Z,100460.72
2019-02-24T09:13:14.181Z,100459.77
2019-02-24T09:15:43.826Z,100457.66
2019-02-24T09:18:13.448Z,100462.17
2019-02-24T09:20:43.104Z,100461.08
2019-02-24T09:23:12.721Z,100465.71
2019-02-24T09:25:42.371Z,100461.63
2019-02-24T09:28:13.302Z,100459.33
2019-02-24T09:30:42.944Z,100468.11
2019-02-24T09:33:12.567Z,100462.17
2019-02-24T09:35:42.208Z,100459.97
2019-02-24T09:38:11.832Z,100459.00
2019-02-24T09:40:41.455Z,100458.91
2019-02-24T09:43:11.094Z,100452.80
2019-02-24T09:45:40.724Z,100446.53
2019-02-24T09:48:10.435Z,100451.66
2019-02-24T09:50:40.057Z,100458.67
2019-02-24T09:53:09.710Z,100443.60
2019-02-24T09:55:39.336Z,100441.47
2019-02-24T09:58:08.984Z,100429.73
2019-02-24T10:00:38.606Z,100426.13
2019-02-24T10:03:08.252Z,100420.51
2019-02-24T10:05:39.039Z,100415.19
2019-02-24T10:08:08.971Z,100414.52
2019-02-24T10:10:38.913Z,100409.24
2019-02-24T10:13:08.695Z,100405.12
2019-02-24T10:15:39.168Z,100398.63
2019-02-24T10:18:10.260Z,100396.49
2019-02-24T10:20:40.442Z,100383.23
2019-02-24T10:23:10.057Z,100384.39
2019-02-24T10:25:40.118Z,100384.38
2019-02-24T10:28:09.882Z,100367.31
2019-02-24T10:30:39.687Z,100368.80
2019-02-24T10:33:09.309Z,100358.68
2019-02-24T10:35:39.045Z,100359.86
2019-02-24T10:38:10.224Z,100352.20
2019-02-24T10:40:39.893Z,100353.22
2019-02-24T10:43:09.514Z,100347.23
2019-02-24T10:45:39.149Z,100338.58
2019-02-24T10:48:14.109Z,100334.78
2019-02-24T10:50:40.142Z,100325.22
2019-02-24T10:53:09.785Z,100321.20
2019-02-24T10:55:39.406Z,100306.59
2019-02-24T10:58:10.077Z,100300.91
2019-02-24T11:00:39.689Z,100312.14
2019-02-24T11:03:09.328Z,100310.08
2019-02-24T11:05:38.953Z,100306.35
2019-02-24T11:08:08.618Z,100300.39
2019-02-24T11:10:38.242Z,100292.91
2019-02-24T11:13:07.905Z,100293.45
2019-02-24T11:15:37.541Z,100315.58
2019-02-24T11:18:07.202Z,100319.31
2019-02-24T11:20:36.879Z,100327.57
2019-02-24T11:23:06.569Z,100322.01
2019-02-24T11:25:36.215Z,100326.33
2019-02-24T11:28:05.827Z,100331.20
2019-02-24T11:30:35.537Z,100331.89
2019-02-24T11:33:05.158Z,100317.88
2019-02-24T11:35:34.801Z,100305.70
2019-02-24T11:38:04.495Z,100308.05
2019-02-24T11:40:34.210Z,100291.54
2019-02-24T11:43:03.829Z,100295.44
2019-02-24T11:45:33.473Z,100287.64
2019-02-24T11:48:03.103Z,100290.30
2019-02-24T11:50:32.859Z,100292.89
2019-02-24T11:53:02.508Z,100285.35
2019-02-24T11:55:32.126Z,100287.11
2019-02-24T11:58:01.773Z,100287.20
2019-02-24T12:00:31.473Z,100278.61
2019-02-24T12:03:01.123Z,100271.10
2019-02-24T12:05:30.753Z,100267.30
2019-02-24T12:08:00.486Z,100268.34
2019-02-24T12:10:30.111Z,100261.63
2019-02-24T12:12:59.836Z,100262.85
2019-02-24T12:15:29.465Z,100266.52
2019-02-24T12:17:59.117Z,100262.95
2019-02-24T12:20:28.743Z,100253.71
2019-02-24T12:22:58.448Z,100254.09
2019-02-24T12:25:28.075Z,100257.92
2019-02-24T12:27:57.789Z,100253.91
2019-02-24T12:30:27.443Z,100246.42
2019-02-24T12:32:57.145Z,100256.88
2019-02-24T12:35:26.820Z,100258.23
2019-02-24T12:37:56.450Z,100261.24
2019-02-24T12:40:26.104Z,100258.97
2019-02-24T12:42:55.731Z,100263.13
2019-02-24T12:45:25.384Z,100250.73
2019-02-24T12:47:55.013Z,100249.55
2019-02-24T12:50:24.988Z,100244.79
2019-02-24T12:52:54.618Z,100245.35
2019-02-24T12:55:24.249Z,100238.84
2019-02-24T12:57:53.902Z,100240.09
2019-02-24T13:00:28.100Z,100242.88
2019-02-24T13:02:57.750Z,100246.47
2019-02-24T13:05:27.516Z,100255.33
2019-02-24T13:07:57.169Z,100240.36
2019-02-24T13:10:26.795Z,100251.21
2019-02-24T13:12:56.451Z,100242.81
2019-02-24T13:15:26.086Z,100244.71
2019-02-24T13:17:55.736Z,100251.83
2019-02-24T13:20:25.366Z,100252.94
2019-02-24T13:22:55.027Z,100253.34
2019-02-24T13:25:24.651Z,100252.70
2019-02-24T13:27:54.284Z,100244.88
2019-02-24T13:30:24.080Z,100244.68
2019-02-24T13:32:53.712Z,100243.14
2019-02-24T13:35:23.367Z,100240.91
2019-02-24T13:37:52.999Z,100244.89
2019-02-24T13:40:22.657Z,100248.69
2019-02-24T13:42:52.275Z,100246.14
2019-02-24T13:45:26.863Z,100246.92
2019-02-24T13:47:55.478Z,100246.61
2019-02-24T13:50:25.229Z,100241.78
2019-02-24T13:52:54.856Z,100244.03
2019-02-24T13:55:24.508Z,100238.20
2019-02-24T13:57:54.132Z,100234.08
2019-02-24T14:00:24.219Z,100230.34
2019-02-24T14:02:53.846Z,100226.36
2019-02-24T14:05:23.791Z,100221.73
2019-02-24T14:07:53.418Z,100223.16
2019-02-24T14:10:23.048Z,100230.42
2019-02-24T14:12:52.705Z,100223.77
2019-02-24T14:15:22.342Z,100221.98
2019-02-24T14:17:52.651Z,100212.93
2019-02-24T14:20:22.288Z,100202.94
2019-02-24T14:22:51.939Z,100205.09
2019-02-24T14:25:21.565Z,100204.11
2019-02-24T14:27:51.218Z,100205.47
2019-02-24T14:30:20.840Z,100209.69
2019-02-24T14:32:50.490Z,100200.50
2019-02-24T14:35:25.818Z,100191.46
2019-02-24T14:37:55.545Z,100194.69
2019-02-24T14:40:25.236Z,100184.43
2019-02-24T14:42:54.890Z,100182.69
2019-02-24T14:45:25.532Z,100181.21
2019-02-24T14:47:55.258Z,100174.52
2019-02-24T14:50:24.883Z,100176.94
2019-02-24T14:52:54.538Z,100174.75
2019-02-24T14:55:24.164Z,100189.36
2019-02-24T14:57:53.812Z,100199.24
2019-02-24T15:00:24.848Z,100201.34
2019-02-24T15:02:54.497Z,100202.84
2019-02-24T15:05:24.141Z,100199.02
2019-02-24T15:07:53.793Z,100202.35
2019-02-24T15:10:27.286Z,100201.27
2019-02-24T15:12:56.940Z,100209.90
2019-02-24T15:15:33.493Z,100209.99
2019-02-24T15:18:03.376Z,100217.79
2019-02-24T15:20:33.007Z,100209.16
2019-02-24T15:23:02.671Z,100213.97
2019-02-24T15:25:32.295Z,100216.09
2019-02-24T15:28:01.925Z,100220.42
2019-02-24T15:30:39.584Z,100222.91
2019-02-24T15:33:09.281Z,100228.80
2019-02-24T15:35:38.936Z,100241.30
2019-02-24T15:38:08.569Z,100233.97
2019-02-24T15:40:38.220Z,100225.96
2019-02-24T15:43:07.847Z,100226.00
2019-02-24T15:45:37.592Z,100225.02
2019-02-24T15:48:07.527Z,100222.10
2019-02-24T15:50:37.231Z,100220.09
2019-02-24T15:53:06.927Z,100220.67
2019-02-24T15:55:36.556Z,100214.80
2019-02-24T15:58:06.207Z,100218.73
2019-02-24T16:00:35.837Z,100216.70
2019-02-24T16:03:05.493Z,100223.80
2019-02-24T16:05:35.116Z,100225.64
2019-02-24T16:08:04.799Z,100222.55
2019-02-24T16:10:34.437Z,100227.42
2019-02-24T16:13:04.165Z,100221.40
2019-02-24T16:15:33.833Z,100228.05
2019-02-24T16:18:03.531Z,100234.59
2019-02-24T16:20:35.667Z,100237.23
2019-02-24T16:23:05.642Z,100231.40
2019-02-24T16:25:35.271Z,100237.39
2019-02-24T16:28:04.901Z,100251.27
2019-02-24T16:30:34.554Z,100254.63
2019-02-24T16:33:10.169Z,100255.27
2019-02-24T16:35:35.567Z,100266.52
2019-02-24T16:38:05.195Z,100264.05
2019-02-24T16:40:34.850Z,100263.63
2019-02-24T16:43:04.541Z,100261.16
2019-02-24T16:45:34.195Z,100264.23
2019-02-24T16:48:03.827Z,100267.93
2019-02-24T16:50:33.617Z,100264.84
2019-02-24T16:53:03.311Z,100272.55
2019-02-24T16:55:33.298Z,100275.30
2019-02-24T16:58:02.933Z,100281.34
2019-02-24T17:00:32.847Z,100279.77
2019-02-24T17:03:02.546Z,100269.96
2019-02-24T17:05:32.183Z,100276.82
2019-02-24T17:08:01.900Z,100284.51
2019-02-24T17:10:31.701Z,100283.67
2019-02-24T17:13:01.976Z,100283.30
2019-02-24T17:15:31.820Z,100291.07
2019-02-24T17:18:01.469Z,100296.80
2019-02-24T17:20:33.807Z,100307.69
2019-02-24T17:23:03.458Z,100311.84
2019-02-24T17:25:33.074Z,100316.66
2019-02-24T17:28:02.787Z,100319.86
2019-02-24T17:30:32.584Z,100323.80
2019-02-24T17:33:02.279Z,100331.44
2019-02-24T17:35:32.064Z,100329.86
2019-02-24T17:38:02.107Z,100332.34
2019-02-24T17:40:31.764Z,100339.17
2019-02-24T17:43:01.376Z,100348.89
2019-02-24T17:45:31.023Z,100358.53
2019-02-24T17:48:00.643Z,100356.07
2019-02-24T17:50:31.499Z,100365.70
2019-02-24T17:53:01.131Z,100363.63
2019-02-24T17:55:30.768Z,100367.03
2019-02-24T17:58:00.397Z,100371.23
2019-02-24T18:00:47.054Z,100377.56
2019-02-24T18:03:16.674Z,100378.51
2019-02-24T18:05:46.319Z,100383.78
2019-02-24T18:08:15.936Z,100386.48
2019-02-24T18:10:45.592Z,100393.79
2019-02-24T18:13:15.213Z,100399.92
2019-02-24T18:15:44.834Z,100393.95
2019-02-24T18:18:14.479Z,100397.86
2019-02-24T18:20:44.091Z,100399.95
2019-02-24T18:23:13.734Z,100391.58
2019-02-24T18:25:43.355Z,100388.91
2019-02-24T18:28:13.001Z,100388.98
2019-02-24T18:30:42.691Z,100388.21
2019-02-24T18:33:12.336Z,100390.56
2019-02-24T18:35:41.955Z,100396.59
2019-02-24T18:38:11.603Z,100400.17
2019-02-24T18:40:41.361Z,100407.00
2019-02-24T18:43:11.057Z,100405.80
2019-02-24T18:45:40.747Z,100394.22
2019-02-24T18:48:10.367Z,100401.44
2019-02-24T18:50:40.082Z,100394.98
2019-02-24T18:53:09.702Z,100402.55
2019-02-24T18:55:39.349Z,100397.60
2019-02-24T18:58:08.966Z,100397.74
2019-02-24T19:00:38.641Z,100393.32
2019-02-24T19:03:08.246Z,100390.08
2019-02-24T19:05:37.893Z,100385.17
2019-02-24T19:08:07.585Z,100380.69
2019-02-24T19:10:37.204Z,100382.91
2019-02-24T19:13:07.069Z,100384.24
2019-02-24T19:15:36.687Z,100388.73
2019-02-24T19:18:06.466Z,100383.47
2019-02-24T19:20:36.085Z,100384.16
2019-02-24T19:23:05.730Z,100393.81
2019-02-24T19:25:35.350Z,100391.30
2019-02-24T19:28:05.057Z,100385.29
2019-02-24T19:30:34.683Z,100390.31
2019-02-24T19:33:04.398Z,100393.47
2019-02-24T19:35:34.021Z,100395.33
2019-02-24T19:38:04.221Z,100386.37
2019-02-24T19:40:33.846Z,100397.92
2019-02-24T19:43:03.466Z,100403.05
2019-02-24T19:45:33.117Z,100409.02
2019-02-24T19:48:02.737Z,100413.65
2019-02-24T19:50:32.380Z,100412.16
2019-02-24T19:53:01.999Z,100411.37
2019-02-24T19:55:31.733Z,100415.23
2019-02-24T19:58:01.352Z,100409.81
2019-02-24T20:00:31.062Z,100400.86
2019-02-24T20:03:00.684Z,100399.22
2019-02-24T20:05:30.335Z,100397.36
2019-02-24T20:07:59.958Z,100408.49
2019-02-24T20:10:31.326Z,100409.33
2019-02-24T20:13:01.330Z,100423.13
2019-02-24T20:15:31.323Z,100422.97
2019-02-24T20:18:01.359Z,100418.70
2019-02-24T20:20:31.266Z,100420.02
2019-02-24T20:23:01.185Z,100416.87
2019-02-24T20:25:31.103Z,100409.09
2019-02-24T20:28:00.877Z,100422.40
2019-02-24T20:30:33.870Z,100424.06
2019-02-24T20:33:03.604Z,100428.52
2019-02-24T20:35:33.289Z,100421.70
2019-02-24T20:38:03.091Z,100423.37
2019-02-24T20:40:32.770Z,100426.86
2019-02-24T20:43:02.468Z,100428.69
2019-02-24T20:45:32.216Z,100430.36
2019-02-24T20:48:02.106Z,100428.84
2019-02-24T20:50:36.218Z,100427.88
2019-02-24T20:53:06.097Z,100423.22
2019-02-24T20:55:35.746Z,100424.55
2019-02-24T20:58:05.605Z,100415.42
2019-02-24T21:00:50.552Z,100423.39
2019-02-24T21:03:20.173Z,100420.23
2019-02-24T21:05:49.825Z,100412.24
2019-02-24T21:08:19.459Z,100412.78
2019-02-24T21:10:49.150Z,100411.94
2019-02-24T21:13:18.806Z,100412.08
2019-02-24T21:15:48.427Z,100421.38
2019-02-24T21:18:18.078Z,100423.20
2019-02-24T21:20:47.766Z,100423.19
2019-02-24T21:23:17.416Z,100420.54
2019-02-24T21:25:47.033Z,100422.70
2019-02-24T21:28:16.685Z,100423.98
2019-02-24T21:30:46.301Z,100420.19
2019-02-24T21:33:15.947Z,100418.38
2019-02-24T21:35:46.628Z,100425.17
2019-02-24T21:38:16.416Z,100428.81
2019-02-24T21:40:46.036Z,100418.86
2019-02-24T21:43:15.660Z,100421.34
2019-02-24T21:45:45.302Z,100422.65
2019-02-24T21:48:14.923Z,100423.49
2019-02-24T21:50:44.570Z,100417.03
2019-02-24T21:53:14.190Z,100418.66
2019-02-24T21:55:43.838Z,100419.17
2019-02-24T21:58:13.456Z,100417.52
2019-02-24T22:00:43.105Z,100413.19
2019-02-24T22:03:12.724Z,100420.97
2019-02-24T22:05:42.374Z,100419.30
2019-02-24T22:08:11.995Z,100411.50
2019-02-24T22:10:41.662Z,100403.37
2019-02-24T22:13:11.279Z,100402.05
2019-02-24T22:15:40.926Z,100411.16
2019-02-24T22:18:10.576Z,100412.31
2019-02-24T22:20:40.195Z,100411.33
2019-02-24T22:23:09.838Z,100414.47
2019-02-24T22:25:39.457Z,100413.81
2019-02-24T22:28:09.102Z,100413.47
2019-02-24T22:30:38.724Z,100417.77
2019-02-24T22:33:08.366Z,100428.50
2019-02-24T22:35:38.854Z,100429.17
2019-02-24T22:38:08.517Z,100414.56
2019-02-24T22:40:38.135Z,100418.71
2019-02-24T22:43:07.753Z,100421.67
2019-02-24T22:45:37.467Z,100416.23
2019-02-24T22:48:07.085Z,100417.53
2019-02-24T22:50:36.731Z,100424.30
2019-02-24T22:53:06.349Z,100423.28
2019-02-24T22:55:35.999Z,100429.73
2019-02-24T22:58:05.685Z,100432.20
2019-02-24T23:00:51.021Z,100432.69
2019-02-24T23:03:25.133Z,100435.20
2019-02-24T23:05:54.044Z,100440.45
2019-02-24T23:08:23.763Z,100438.73
2019-02-24T23:10:53.523Z,100441.73
2019-02-24T23:13:23.241Z,100434.58
2019-02-24T23:15:52.865Z,100439.71
2019-02-24T23:18:22.579Z,100437.72
2019-02-24T23:20:52.200Z,100445.66
2019-02-24T23:23:21.914Z,100444.64
2019-02-24T23:25:51.532Z,100443.75
2019-02-24T23:28:21.177Z,100436.95
2019-02-24T23:30:50.797Z,100438.28
2019-02-24T23:33:20.440Z,100434.84
2019-02-24T23:35:50.057Z,100435.32
2019-02-24T23:38:19.769Z,100440.13
2019-02-24T23:40:49.390Z,100436.77
2019-02-24T23:43:19.107Z,100443.05
2019-02-24T23:45:48.798Z,100451.82
2019-02-24T23:48:18.446Z,100445.80
2019-02-24T23:50:48.238Z,100451.05
2019-02-24T23:53:17.857Z,100451.05
2019-02-24T23:55:47.509Z,100445.62
2019-02-24T23:58:17.190Z,100450.73
